Disclaimer

Please do not use the information listed here in-flight or in-navigation, as they are not provided to us by the airports but are provided by volunteers, so they might be outdated.

Search


Regions


Airport information page

Radio informations:
Tower (TWR) - 123.7 MHz

Airport informations:
Latitude: 44° 06' 29.77" N
Longitude: 015° 20' 48.11" E
Elevation: 289 feet - 88 meters
Operating hours: Remarks
Operating agency: Civil government, landing fees and diplomatic clearance may be required
Timezone: UTC+1(+2DT) - Last Sunday in March to last Sunday in October
Fuel: Jet A1, without icing nhibitor.

Runway information:
04/22 - 6561 x 147 feet< - >2000 x 45 meters
14/32 - 8202 x 147 feet< - >2500 x 45 meters

Recent METARs:
LDZD 192000Z 08013KT 030V120 9999 -RA FEW030 BKN050 07/04 Q1007 TEMPO 08015G25KT 4000 RA
LDZD 192030Z 07013KT 030V130 9999 -RA FEW030 BKN050 07/04 Q1006 TEMPO 08015G25KT 4000 RA
LDZD 192100Z 07012KT 030V110 9999 RA FEW030 BKN040 07/05 Q1005 NOSIG

Airport on the map: